Terminal Aerodrome Forecast
Issued by NWS Tuscon, AZ

Home | Current Version | Previous Version | Text Only | Print | Product List | Glossary On
Versions: 1 2 3 4 5 6 7 8 9 10 11 12 13
000
FTUS45 KTWC 162300
TAFDUG
TAF
KDUG 162331Z 1700/1724 24014G24KT P6SM SKC
     FM170200 27011KT P6SM FEW250
     FM170800 VRB04KT P6SM FEW250
     FM171900 20010KT P6SM SCT250=

USA.gov is the U.S. government's official web portal to all federal, state and local government web resources and services.